createdAt,value
2023-05-27T00:00:49.052Z,36.23
2023-05-27T00:03:16.953Z,37.33
2023-05-27T00:05:46.332Z,38.20
2023-05-27T00:08:14.225Z,38.83
2023-05-27T00:10:42.308Z,36.77
2023-05-27T00:13:10.045Z,40.97
2023-05-27T00:15:37.853Z,33.73
2023-05-27T00:18:06.159Z,38.30
2023-05-27T00:20:34.124Z,37.30
2023-05-27T00:23:03.427Z,44.53
2023-05-27T00:25:32.717Z,37.77
2023-05-27T00:28:01.656Z,37.93
2023-05-27T00:30:29.446Z,39.63
2023-05-27T00:32:57.836Z,36.67
2023-05-27T00:35:25.881Z,35.13
2023-05-27T00:37:53.632Z,37.27
2023-05-27T00:40:23.895Z,36.80
2023-05-27T00:42:52.086Z,39.20
2023-05-27T00:45:19.895Z,38.00
2023-05-27T00:47:47.849Z,39.97
2023-05-27T00:50:16.191Z,38.30
2023-05-27T00:52:43.962Z,43.00
2023-05-27T00:55:12.191Z,35.60
2023-05-27T00:57:41.574Z,35.20
2023-05-27T01:00:12.213Z,35.83
2023-05-27T01:02:43.659Z,41.47
2023-05-27T01:05:13.477Z,42.83
2023-05-27T01:07:47.565Z,38.97
2023-05-27T01:10:19.795Z,42.43
2023-05-27T01:12:53.016Z,40.80
2023-05-27T01:15:21.662Z,39.80
2023-05-27T01:17:49.778Z,40.33
2023-05-27T01:20:18.368Z,39.20
2023-05-27T01:22:48.477Z,46.23
2023-05-27T01:25:17.096Z,39.87
2023-05-27T01:27:45.992Z,38.60
2023-05-27T01:30:15.351Z,38.40
2023-05-27T01:32:45.899Z,38.87
2023-05-27T01:35:19.125Z,42.43
2023-05-27T01:37:48.656Z,38.07
2023-05-27T01:40:16.908Z,40.27
2023-05-27T01:42:46.819Z,37.00
2023-05-27T01:45:15.092Z,46.10
2023-05-27T01:47:44.827Z,40.60
2023-05-27T01:50:12.765Z,42.97
2023-05-27T01:52:41.024Z,48.00
2023-05-27T01:55:12.868Z,39.07
2023-05-27T01:57:40.871Z,43.90
2023-05-27T02:00:10.784Z,37.57
2023-05-27T02:02:45.905Z,41.47
2023-05-27T02:05:18.739Z,43.57
2023-05-27T02:07:46.509Z,39.00
2023-05-27T02:10:15.554Z,42.90
2023-05-27T02:12:43.495Z,37.07
2023-05-27T02:15:11.503Z,35.70
2023-05-27T02:17:40.003Z,38.73
2023-05-27T02:20:08.358Z,43.07
2023-05-27T02:22:37.258Z,37.23
2023-05-27T02:25:05.178Z,43.20
2023-05-27T02:27:35.268Z,40.67
2023-05-27T02:30:03.614Z,38.23
2023-05-27T02:32:33.635Z,55.40
2023-05-27T02:35:01.535Z,35.57
2023-05-27T02:37:29.566Z,36.00
2023-05-27T02:39:58.499Z,38.67
2023-05-27T02:42:26.251Z,37.90
2023-05-27T02:44:55.595Z,40.60
2023-05-27T02:47:24.810Z,45.23
2023-05-27T02:49:52.795Z,37.33
2023-05-27T02:52:20.774Z,35.10
2023-05-27T02:54:48.607Z,40.87
2023-05-27T02:57:17.094Z,39.00
2023-05-27T02:59:47.140Z,30.63
2023-05-27T03:02:16.284Z,38.50
2023-05-27T03:04:44.421Z,35.40
2023-05-27T03:07:12.811Z,37.97
2023-05-27T03:09:40.705Z,41.80
2023-05-27T03:12:08.691Z,39.73
2023-05-27T03:14:36.855Z,38.93
2023-05-27T03:17:04.794Z,42.87
2023-05-27T03:19:34.137Z,35.53
2023-05-27T03:22:02.210Z,36.33
2023-05-27T03:24:31.139Z,35.77
2023-05-27T03:26:59.294Z,36.73
2023-05-27T03:29:27.219Z,34.73
2023-05-27T03:31:55.163Z,38.63
2023-05-27T03:34:23.444Z,35.10
2023-05-27T03:36:52.841Z,34.23
2023-05-27T03:39:25.586Z,33.87
2023-05-27T03:41:57.626Z,37.43
2023-05-27T03:44:25.459Z,36.53
2023-05-27T03:46:53.879Z,38.57
2023-05-27T03:49:22.406Z,43.23
2023-05-27T03:51:52.150Z,38.30
2023-05-27T03:54:19.976Z,35.03
2023-05-27T03:56:49.051Z,40.67
2023-05-27T03:59:16.785Z,35.43
2023-05-27T04:01:45.581Z,36.30
2023-05-27T04:04:13.428Z,33.83
2023-05-27T04:06:42.788Z,34.90
2023-05-27T04:09:12.321Z,38.67
2023-05-27T04:11:40.134Z,40.13
2023-05-27T04:14:08.399Z,39.90
2023-05-27T04:16:42.229Z,40.77
2023-05-27T04:19:10.918Z,37.10
2023-05-27T04:21:38.794Z,37.87
2023-05-27T04:24:07.358Z,40.30
2023-05-27T04:26:36.763Z,33.70
2023-05-27T04:29:07.248Z,43.00
2023-05-27T04:31:37.622Z,40.10
2023-05-27T04:34:11.096Z,39.63
2023-05-27T04:36:39.553Z,38.10
2023-05-27T04:39:14.385Z,38.77
2023-05-27T04:41:46.115Z,36.07
2023-05-27T04:44:21.473Z,34.90
2023-05-27T04:46:51.397Z,45.17
2023-05-27T04:49:19.441Z,41.57
2023-05-27T04:51:48.591Z,35.30
2023-05-27T04:54:20.332Z,36.90
2023-05-27T04:56:52.784Z,34.97
2023-05-27T04:59:30.600Z,39.20
2023-05-27T05:02:12.323Z,40.37
2023-05-27T05:04:47.377Z,35.47
2023-05-27T05:07:15.713Z,41.13
2023-05-27T05:09:43.740Z,41.23
2023-05-27T05:12:20.536Z,39.73
2023-05-27T05:14:51.264Z,36.30
2023-05-27T05:17:19.356Z,40.63
2023-05-27T05:19:48.595Z,35.20
2023-05-27T05:22:19.475Z,37.53
2023-05-27T05:24:50.246Z,53.77
2023-05-27T05:27:20.738Z,39.87
2023-05-27T05:29:48.763Z,42.60
2023-05-27T05:32:17.401Z,35.77
2023-05-27T05:34:45.488Z,40.70
2023-05-27T05:37:13.602Z,37.30
2023-05-27T05:39:43.236Z,39.33
2023-05-27T05:42:11.114Z,40.90
2023-05-27T05:44:40.455Z,37.00
2023-05-27T05:47:10.799Z,38.80
2023-05-27T05:49:38.610Z,35.20
2023-05-27T05:52:08.544Z,34.87
2023-05-27T05:54:37.041Z,34.93
2023-05-27T05:57:05.040Z,36.30
2023-05-27T05:59:33.050Z,36.97
2023-05-27T06:02:02.278Z,34.27
2023-05-27T06:04:30.056Z,36.80
2023-05-27T06:07:00.001Z,33.23
2023-05-27T06:09:49.360Z,32.10
2023-05-27T06:12:28.817Z,33.77
2023-05-27T06:14:57.078Z,35.17
2023-05-27T06:17:33.744Z,35.20
2023-05-27T06:20:01.737Z,35.33
2023-05-27T06:22:29.800Z,36.17
2023-05-27T06:24:58.024Z,24.97
2023-05-27T06:27:39.374Z,25.40
2023-05-27T06:30:10.984Z,31.37
2023-05-27T06:32:44.393Z,30.43
2023-05-27T06:35:12.579Z,31.40
2023-05-27T06:37:40.544Z,30.97
2023-05-27T06:40:09.719Z,27.47
2023-05-27T06:42:37.992Z,31.30
2023-05-27T06:45:20.149Z,29.17
2023-05-27T06:47:56.874Z,33.00
2023-05-27T06:50:28.230Z,27.50
2023-05-27T06:52:56.550Z,22.47
2023-05-27T06:55:36.930Z,23.23
2023-05-27T06:58:15.709Z,26.40
2023-05-27T07:00:58.870Z,21.80
2023-05-27T07:03:49.122Z,25.60
2023-05-27T07:06:22.894Z,22.07
2023-05-27T07:08:53.184Z,21.67
2023-05-27T07:11:29.008Z,15.83
2023-05-27T07:14:01.998Z,13.10
2023-05-27T07:16:33.757Z,14.30
2023-05-27T07:19:03.442Z,22.03
2023-05-27T07:21:37.714Z,20.60
2023-05-27T07:24:11.798Z,20.00
2023-05-27T07:26:41.269Z,19.50
2023-05-27T07:29:09.017Z,20.20
2023-05-27T07:31:57.278Z,17.47
2023-05-27T07:34:29.396Z,16.10
2023-05-27T07:36:57.868Z,17.13
2023-05-27T07:39:25.802Z,15.90
2023-05-27T07:41:53.948Z,17.60
2023-05-27T07:44:22.011Z,17.90
2023-05-27T07:46:50.338Z,16.00
2023-05-27T07:49:18.268Z,22.70
2023-05-27T07:52:16.867Z,15.47
2023-05-27T07:54:54.761Z,15.60
2023-05-27T07:57:25.140Z,15.23
2023-05-27T07:59:53.143Z,17.07
2023-05-27T08:02:23.069Z,17.00
2023-05-27T08:04:52.372Z,16.03
2023-05-27T08:07:40.145Z,17.73
2023-05-27T08:10:12.996Z,16.40
2023-05-27T08:12:56.200Z,15.50
2023-05-27T08:15:42.193Z,17.50
2023-05-27T08:18:23.258Z,16.87
2023-05-27T08:21:06.608Z,16.90
2023-05-27T08:23:54.625Z,15.40
2023-05-27T08:26:41.129Z,15.60
2023-05-27T08:29:47.540Z,16.77
2023-05-27T08:32:29.430Z,14.37
2023-05-27T08:34:58.809Z,15.47
2023-05-27T08:37:26.709Z,14.17
2023-05-27T08:39:58.854Z,14.47
2023-05-27T08:42:41.228Z,14.40
2023-05-27T08:45:12.362Z,13.53
2023-05-27T08:47:40.858Z,15.90
2023-05-27T08:50:12.774Z,17.03
2023-05-27T08:52:47.011Z,14.50
2023-05-27T08:55:17.315Z,14.63
2023-05-27T08:57:49.131Z,14.93
2023-05-27T09:00:18.160Z,14.60
2023-05-27T09:02:48.286Z,16.77
2023-05-27T09:05:17.019Z,16.20
2023-05-27T09:07:44.948Z,15.70
2023-05-27T09:10:12.906Z,14.97
2023-05-27T09:12:44.472Z,14.40
2023-05-27T09:15:12.485Z,16.60
2023-05-27T09:17:42.278Z,18.23
2023-05-27T09:20:12.376Z,16.20
2023-05-27T09:22:40.703Z,15.57
2023-05-27T09:25:09.730Z,16.60
2023-05-27T09:27:37.934Z,16.50
2023-05-27T09:30:11.744Z,15.87
2023-05-27T09:32:39.649Z,15.37
2023-05-27T09:35:08.327Z,15.93
2023-05-27T09:37:36.968Z,15.40
2023-05-27T09:40:07.897Z,21.40
2023-05-27T09:42:43.266Z,14.93
2023-05-27T09:45:15.058Z,17.10
2023-05-27T09:47:43.547Z,34.67
2023-05-27T09:50:12.194Z,34.07
2023-05-27T09:52:48.656Z,33.40
2023-05-27T09:55:22.064Z,58.13
2023-05-27T09:57:50.521Z,45.70
2023-05-27T10:00:20.016Z,55.93
2023-05-27T10:02:48.625Z,72.07
2023-05-27T10:05:18.204Z,92.07
2023-05-27T10:08:08.695Z,53.27
2023-05-27T10:10:35.872Z,67.83
2023-05-27T10:13:04.166Z,39.27
2023-05-27T10:15:34.591Z,80.63
2023-05-27T10:18:04.654Z,117.77
2023-05-27T10:20:32.995Z,22.93
2023-05-27T10:23:11.911Z,76.57
2023-05-27T10:25:40.522Z,18.53
2023-05-27T10:28:09.023Z,25.30
2023-05-27T10:30:47.553Z,17.60
2023-05-27T10:33:15.524Z,20.07
2023-05-27T10:35:44.006Z,23.87
2023-05-27T10:38:18.640Z,19.47
2023-05-27T10:40:48.165Z,17.27
2023-05-27T10:43:19.879Z,17.47
2023-05-27T10:45:49.496Z,26.13
2023-05-27T10:48:18.552Z,50.30
2023-05-27T10:50:53.154Z,41.60
2023-05-27T10:53:22.152Z,79.60
2023-05-27T10:55:50.236Z,140.50
2023-05-27T10:58:18.427Z,89.03
2023-05-27T11:00:46.727Z,89.40
2023-05-27T11:03:20.078Z,45.97
2023-05-27T11:05:48.081Z,163.83
2023-05-27T11:08:15.996Z,219.43
2023-05-27T11:10:44.354Z,60.37
2023-05-27T11:13:12.899Z,133.03
2023-05-27T11:15:41.985Z,16.27
2023-05-27T11:18:10.111Z,25.97
2023-05-27T11:20:39.816Z,37.37
2023-05-27T11:23:07.844Z,20.37
2023-05-27T11:25:44.950Z,105.73
2023-05-27T11:28:18.558Z,17.27
2023-05-27T11:30:47.892Z,39.83
2023-05-27T11:33:32.491Z,16.50
2023-05-27T11:38:59.406Z,22.60
2023-05-27T11:41:28.765Z,17.67
2023-05-27T11:43:57.920Z,17.63
2023-05-27T11:46:26.103Z,17.90
2023-05-27T11:48:53.944Z,18.03
2023-05-27T11:51:31.083Z,18.80
2023-05-27T11:54:02.568Z,22.70
2023-05-27T11:56:30.807Z,20.27
2023-05-27T11:58:58.846Z,18.80
2023-05-27T12:01:27.483Z,17.73
2023-05-27T12:03:55.454Z,17.20
2023-05-27T12:06:23.407Z,17.80
2023-05-27T12:08:52.609Z,18.67
2023-05-27T12:11:20.716Z,20.07
2023-05-27T12:13:48.411Z,17.53
2023-05-27T12:16:17.117Z,18.20
2023-05-27T12:18:46.570Z,19.50
2023-05-27T12:21:14.672Z,20.20
2023-05-27T12:23:43.017Z,20.13
2023-05-27T12:26:13.915Z,18.13
2023-05-27T12:28:41.870Z,20.03
2023-05-27T12:31:10.339Z,17.03
2023-05-27T12:33:38.129Z,19.47
2023-05-27T12:36:06.715Z,17.37
2023-05-27T12:38:35.397Z,18.70
2023-05-27T12:41:03.188Z,18.00
2023-05-27T12:43:32.646Z,16.90
2023-05-27T12:46:00.936Z,20.80
2023-05-27T12:48:28.820Z,24.50
2023-05-27T12:50:56.608Z,20.77
2023-05-27T12:53:25.190Z,18.40
2023-05-27T12:55:53.120Z,17.33
2023-05-27T12:58:21.199Z,17.43
2023-05-27T13:00:50.774Z,18.37
2023-05-27T13:03:18.768Z,17.90
2023-05-27T13:05:46.943Z,16.93
2023-05-27T13:08:14.908Z,18.10
2023-05-27T13:10:42.886Z,17.77
2023-05-27T13:13:11.938Z,23.37
2023-05-27T13:15:39.992Z,18.20
2023-05-27T13:18:11.535Z,20.13
2023-05-27T13:20:39.800Z,18.50
2023-05-27T13:23:08.222Z,18.00
2023-05-27T13:25:36.042Z,17.90
2023-05-27T13:28:04.077Z,18.13
2023-05-27T13:30:31.864Z,16.33
2023-05-27T13:32:59.943Z,17.80
2023-05-27T13:35:29.116Z,18.70
2023-05-27T13:37:57.089Z,20.47
2023-05-27T13:40:25.166Z,19.03
2023-05-27T13:42:55.229Z,20.60
2023-05-27T13:45:24.521Z,18.77
2023-05-27T13:47:52.439Z,17.73
2023-05-27T13:50:20.498Z,18.67
2023-05-27T13:52:49.796Z,19.57
2023-05-27T13:55:18.199Z,21.20
2023-05-27T13:57:45.885Z,19.23
2023-05-27T14:00:14.496Z,18.67
2023-05-27T14:02:42.203Z,18.63
2023-05-27T14:05:10.697Z,19.00
2023-05-27T14:07:41.497Z,19.27
2023-05-27T14:10:11.577Z,19.47
2023-05-27T14:12:41.542Z,18.50
2023-05-27T14:15:10.220Z,22.60
2023-05-27T14:17:38.394Z,21.97
2023-05-27T14:20:11.870Z,20.03
2023-05-27T14:22:40.153Z,18.73
2023-05-27T14:25:08.655Z,19.00
2023-05-27T14:27:37.970Z,19.80
2023-05-27T14:30:07.000Z,18.10
2023-05-27T14:32:35.255Z,18.47
2023-05-27T14:35:03.389Z,18.00
2023-05-27T14:37:31.124Z,18.50
2023-05-27T14:40:00.369Z,19.07
2023-05-27T14:42:28.367Z,17.03
2023-05-27T14:44:57.616Z,17.87
2023-05-27T14:47:25.397Z,19.33
2023-05-27T14:49:53.520Z,19.10
2023-05-27T14:52:21.684Z,23.50
2023-05-27T14:54:49.670Z,20.97
2023-05-27T14:57:17.416Z,31.20
2023-05-27T14:59:45.346Z,19.60
2023-05-27T15:02:14.516Z,18.40
2023-05-27T15:04:42.475Z,19.60
2023-05-27T15:07:10.226Z,20.90
2023-05-27T15:09:38.268Z,20.53
2023-05-27T15:12:06.423Z,18.20
2023-05-27T15:14:34.571Z,20.20
2023-05-27T15:17:03.295Z,28.10
2023-05-27T15:19:33.146Z,17.97
2023-05-27T15:22:01.438Z,17.60
2023-05-27T15:24:29.167Z,18.60
2023-05-27T15:26:57.935Z,19.40
2023-05-27T15:29:29.351Z,18.30
2023-05-27T15:31:57.209Z,18.20
2023-05-27T15:34:25.175Z,17.97
2023-05-27T15:36:55.202Z,18.10
2023-05-27T15:39:23.920Z,18.40
2023-05-27T15:41:51.707Z,20.50
2023-05-27T15:44:20.576Z,21.00
2023-05-27T15:46:48.579Z,22.67
2023-05-27T15:49:16.583Z,18.87
2023-05-27T15:51:44.592Z,18.17
2023-05-27T15:54:14.387Z,18.63
2023-05-27T15:56:42.686Z,20.50
2023-05-27T15:59:10.798Z,18.83
2023-05-27T16:01:39.126Z,24.47
2023-05-27T16:04:07.759Z,18.80
2023-05-27T16:06:35.990Z,22.00
2023-05-27T16:09:04.652Z,21.00
2023-05-27T16:11:33.816Z,21.87
2023-05-27T16:14:02.441Z,19.40
2023-05-27T16:16:33.902Z,19.53
2023-05-27T16:19:02.075Z,21.90
2023-05-27T16:21:29.810Z,23.33
2023-05-27T16:24:06.998Z,21.90
2023-05-27T16:26:37.592Z,20.63
2023-05-27T16:29:05.395Z,20.43
2023-05-27T16:31:33.314Z,22.27
2023-05-27T16:34:01.390Z,22.00
2023-05-27T16:36:30.231Z,20.67
2023-05-27T16:38:58.011Z,19.57
2023-05-27T16:41:26.787Z,22.03
2023-05-27T16:43:56.360Z,21.60
2023-05-27T16:46:24.442Z,20.77
2023-05-27T16:48:52.315Z,23.03
2023-05-27T16:51:20.123Z,21.63
2023-05-27T16:53:47.925Z,23.30
2023-05-27T16:56:16.175Z,24.20
2023-05-27T16:58:44.003Z,23.80
2023-05-27T17:01:13.198Z,22.17
2023-05-27T17:03:41.147Z,23.40
2023-05-27T17:06:13.510Z,21.83
2023-05-27T17:08:41.245Z,23.80
2023-05-27T17:11:09.161Z,23.47
2023-05-27T17:13:37.119Z,22.80
2023-05-27T17:16:05.053Z,22.40
2023-05-27T17:18:34.765Z,23.37
2023-05-27T17:21:02.854Z,24.10
2023-05-27T17:23:30.764Z,22.77
2023-05-27T17:25:58.967Z,25.47
2023-05-27T17:28:27.249Z,23.90
2023-05-27T17:30:55.308Z,32.93
2023-05-27T17:33:23.078Z,25.27
2023-05-27T17:35:52.673Z,24.97
2023-05-27T17:38:23.704Z,27.13
2023-05-27T17:40:51.820Z,26.23
2023-05-27T17:43:19.880Z,21.40
2023-05-27T17:45:48.216Z,23.87
2023-05-27T17:48:16.207Z,23.87
2023-05-27T17:50:44.227Z,21.10
2023-05-27T17:53:13.367Z,21.27
2023-05-27T17:55:41.482Z,20.90
2023-05-27T17:58:12.188Z,21.87
2023-05-27T18:00:40.982Z,21.57
2023-05-27T18:03:09.051Z,22.33
2023-05-27T18:05:37.014Z,21.40
2023-05-27T18:08:04.755Z,22.50
2023-05-27T18:10:34.643Z,29.33
2023-05-27T18:13:02.822Z,30.83
2023-05-27T18:15:30.644Z,23.40
2023-05-27T18:17:58.699Z,22.13
2023-05-27T18:20:26.707Z,22.03
2023-05-27T18:22:54.725Z,24.47
2023-05-27T18:25:23.234Z,24.00
2023-05-27T18:27:53.165Z,24.33
2023-05-27T18:30:21.042Z,23.20
2023-05-27T18:32:50.104Z,27.07
2023-05-27T18:37:49.683Z,28.90
2023-05-27T18:40:17.708Z,25.20
2023-05-27T18:42:46.029Z,24.33
2023-05-27T18:45:15.190Z,28.60
2023-05-27T18:47:44.844Z,26.33
2023-05-27T18:50:20.348Z,25.87
2023-05-27T18:52:56.405Z,23.13
2023-05-27T18:55:24.232Z,24.27
2023-05-27T18:57:52.413Z,27.33
2023-05-27T19:00:21.647Z,27.20
2023-05-27T19:02:49.444Z,29.77
2023-05-27T19:05:17.233Z,26.60
2023-05-27T19:07:45.380Z,25.00
2023-05-27T19:10:13.117Z,31.37
2023-05-27T19:12:41.154Z,26.70
2023-05-27T19:15:09.821Z,36.23
2023-05-27T19:17:39.276Z,26.63
2023-05-27T19:20:08.358Z,24.50
2023-05-27T19:22:36.285Z,26.37
2023-05-27T19:25:04.024Z,33.40
2023-05-27T19:27:31.799Z,31.53
2023-05-27T19:29:59.991Z,42.10
2023-05-27T19:32:28.246Z,39.00
2023-05-27T19:34:57.775Z,31.63
2023-05-27T19:37:25.639Z,30.57
2023-05-27T19:39:54.669Z,31.73
2023-05-27T19:42:23.151Z,30.43
2023-05-27T19:44:53.416Z,29.50
2023-05-27T19:47:21.585Z,28.97
2023-05-27T19:49:49.499Z,27.10
2023-05-27T19:52:18.628Z,31.47
2023-05-27T19:54:46.900Z,28.27
2023-05-27T19:57:14.993Z,37.80
2023-05-27T19:59:42.947Z,32.73
2023-05-27T20:02:11.051Z,29.37
2023-05-27T20:04:38.984Z,29.90
2023-05-27T20:07:07.028Z,30.37
2023-05-27T20:09:36.195Z,30.83
2023-05-27T20:12:05.783Z,31.40
2023-05-27T20:14:33.989Z,44.87
2023-05-27T20:17:04.954Z,31.80
2023-05-27T20:19:33.407Z,32.13
2023-05-27T20:22:01.159Z,34.23
2023-05-27T20:24:29.088Z,31.93
2023-05-27T20:26:58.241Z,31.10
2023-05-27T20:29:26.676Z,29.63
2023-05-27T20:31:54.782Z,31.23
2023-05-27T20:34:23.688Z,29.93
2023-05-27T20:36:51.560Z,38.13
2023-05-27T20:39:19.463Z,31.33
2023-05-27T20:41:47.256Z,30.00
2023-05-27T20:44:16.628Z,39.73
2023-05-27T20:46:45.679Z,32.93
2023-05-27T20:49:13.818Z,34.30
2023-05-27T20:51:41.989Z,44.93
2023-05-27T20:54:10.139Z,46.67
2023-05-27T20:56:38.077Z,39.87
2023-05-27T20:59:06.044Z,31.70
2023-05-27T21:01:35.349Z,44.37
2023-05-27T21:04:06.159Z,37.67
2023-05-27T21:06:34.967Z,35.63
2023-05-27T21:09:02.740Z,40.70
2023-05-27T21:11:30.769Z,35.70
2023-05-27T21:13:58.782Z,34.80
2023-05-27T21:16:27.455Z,37.13
2023-05-27T21:18:57.082Z,32.83
2023-05-27T21:21:24.874Z,36.80
2023-05-27T21:23:52.637Z,41.47
2023-05-27T21:26:20.879Z,46.13
2023-05-27T21:28:48.797Z,37.60
2023-05-27T21:31:16.655Z,45.80
2023-05-27T21:33:44.593Z,34.70
2023-05-27T21:36:13.769Z,37.83
2023-05-27T21:38:47.009Z,41.50
2023-05-27T21:41:14.978Z,42.37
2023-05-27T21:43:42.814Z,37.20
2023-05-27T21:46:11.169Z,34.97
2023-05-27T21:48:38.974Z,40.17
2023-05-27T21:51:06.915Z,36.87
2023-05-27T21:53:36.158Z,35.10
2023-05-27T21:56:05.658Z,33.27
2023-05-27T21:58:33.936Z,29.93
2023-05-27T22:01:02.094Z,42.27
2023-05-27T22:03:30.127Z,32.67
2023-05-27T22:05:58.190Z,32.10
2023-05-27T22:08:26.377Z,33.63
2023-05-27T22:10:55.871Z,32.60
2023-05-27T22:13:23.621Z,31.80
2023-05-27T22:15:52.141Z,37.93
2023-05-27T22:18:20.486Z,36.20
2023-05-27T22:20:48.595Z,29.60
2023-05-27T22:23:16.582Z,35.93
2023-05-27T22:25:44.472Z,35.33
2023-05-27T22:28:13.617Z,36.13
2023-05-27T22:30:41.760Z,34.90
2023-05-27T22:33:09.721Z,32.00
2023-05-27T22:35:38.018Z,30.33
2023-05-27T22:38:05.884Z,31.00
2023-05-27T22:40:33.837Z,36.27
2023-05-27T22:43:01.545Z,30.20
2023-05-27T22:45:32.120Z,31.77
2023-05-27T22:48:00.753Z,30.50
2023-05-27T22:50:28.523Z,47.33
2023-05-27T22:52:56.405Z,73.63
2023-05-27T22:55:24.346Z,49.47
2023-05-27T22:57:52.551Z,50.40
2023-05-27T23:00:20.924Z,41.80
2023-05-27T23:02:50.119Z,35.30
2023-05-27T23:05:18.074Z,39.00
2023-05-27T23:07:45.826Z,32.13
2023-05-27T23:10:13.586Z,38.60
2023-05-27T23:12:41.579Z,41.17
2023-05-27T23:15:10.021Z,40.30
2023-05-27T23:17:37.798Z,30.93
2023-05-27T23:20:09.414Z,32.63
2023-05-27T23:22:37.398Z,39.03
2023-05-27T23:25:07.645Z,34.10
2023-05-27T23:27:36.323Z,35.50
2023-05-27T23:30:04.654Z,31.83
2023-05-27T23:32:32.546Z,30.23
2023-05-27T23:35:00.531Z,35.33
2023-05-27T23:37:29.891Z,28.30
2023-05-27T23:39:57.651Z,34.37
2023-05-27T23:42:25.488Z,30.87
2023-05-27T23:44:53.361Z,32.80
2023-05-27T23:47:21.122Z,34.23
2023-05-27T23:49:49.657Z,32.80
2023-05-27T23:52:17.640Z,33.43
2023-05-27T23:54:47.062Z,33.40
2023-05-27T23:57:15.372Z,36.33
2023-05-27T23:59:43.201Z,32.30
